Time;durP1;ratioP1;P1;durP2;ratioP2;P2;SDS_P1;SDS_P2;PMS_P1;PMS_P2;Temp;Humidity;BMP_temperature;BMP_pressure;BME280_temperature;BME280_humidity;BME280_pressure;Samples;Min_cycle;Max_cycle;Signal;HPM_P1;HPM_P2
2021/06/27 00:01:58;;;;;;;5.55;5.05;;;21.20;64.90;;;;;;5106253;28;27400;-59
2021/06/27 00:04:42;;;;;;;6.63;5.18;;;21.20;65.00;;;;;;5106541;28;27379;-59
2021/06/27 00:07:27;;;;;;;7.65;5.38;;;21.20;65.00;;;;;;5105238;28;27454;-59
2021/06/27 00:10:14;;;;;;;5.82;5.32;;;21.10;65.10;;;;;;5106246;28;27482;-60
2021/06/27 00:13:00;;;;;;;7.15;5.20;;;21.10;65.10;;;;;;5106311;28;27382;-59
2021/06/27 00:15:46;;;;;;;9.07;5.60;;;21.10;65.20;;;;;;5103805;27;27412;-60
2021/06/27 00:18:31;;;;;;;8.02;4.97;;;21.10;65.20;;;;;;5106189;28;27367;-60
2021/06/27 00:21:16;;;;;;;5.07;4.57;;;21.00;65.20;;;;;;5106223;28;26906;-58
2021/06/27 00:24:01;;;;;;;5.65;4.80;;;21.00;65.20;;;;;;5105890;28;27980;-58
2021/06/27 00:26:46;;;;;;;6.80;5.30;;;21.00;65.30;;;;;;5105991;28;27387;-58
2021/06/27 00:29:30;;;;;;;12.13;6.40;;;20.90;65.20;;;;;;5105832;28;27396;-58
2021/06/27 00:32:14;;;;;;;6.00;4.65;;;20.90;65.20;;;;;;5106057;28;27340;-59
2021/06/27 00:34:59;;;;;;;5.53;4.40;;;20.80;65.20;;;;;;5102414;28;27373;-58
2021/06/27 00:37:44;;;;;;;8.10;5.00;;;20.80;65.30;;;;;;5105901;28;27414;-58
2021/06/27 00:40:29;;;;;;;5.30;4.80;;;20.80;65.40;;;;;;5102409;28;27332;-58
2021/06/27 00:43:14;;;;;;;6.60;4.80;;;20.70;65.40;;;;;;5105901;28;27381;-58
2021/06/27 00:45:59;;;;;;;5.65;4.60;;;20.70;65.40;;;;;;5105695;28;27440;-58
2021/06/27 00:48:44;;;;;;;7.95;5.38;;;20.70;65.40;;;;;;5105747;28;27446;-58
2021/06/27 00:51:28;;;;;;;13.90;5.60;;;20.70;65.50;;;;;;5104700;28;27406;-59
2021/06/27 00:54:13;;;;;;;9.10;5.13;;;20.70;66.40;;;;;;5105435;28;27374;-58
2021/06/27 00:56:58;;;;;;;5.80;5.18;;;20.60;65.50;;;;;;5104452;28;27950;-58
2021/06/27 00:59:42;;;;;;;7.32;5.00;;;20.60;65.50;;;;;;5104042;28;27390;-58
2021/06/27 01:02:27;;;;;;;7.00;5.10;;;20.60;65.50;;;;;;5105769;28;27448;-59
2021/06/27 01:05:13;;;;;;;5.90;5.18;;;20.50;65.50;;;;;;5105301;28;27428;-59
2021/06/27 01:07:58;;;;;;;7.70;5.03;;;20.50;65.50;;;;;;5101885;28;27412;-59
2021/06/27 01:10:43;;;;;;;6.95;4.70;;;20.50;65.50;;;;;;5105401;28;27346;-59
2021/06/27 01:13:28;;;;;;;10.73;5.22;;;20.40;66.40;;;;;;5101054;28;27351;-59
2021/06/27 01:16:13;;;;;;;8.23;5.45;;;20.40;65.50;;;;;;5104947;28;27321;-58
2021/06/27 01:18:57;;;;;;;8.65;5.57;;;20.40;65.70;;;;;;5105268;28;27357;-59
2021/06/27 01:21:42;;;;;;;9.90;5.03;;;20.40;65.70;;;;;;5104932;28;27402;-59
2021/06/27 01:24:27;;;;;;;6.80;5.57;;;20.40;65.70;;;;;;5105045;28;27431;-59
2021/06/27 01:27:12;;;;;;;7.05;5.35;;;20.40;65.70;;;;;;5104880;27;27491;-58
2021/06/27 01:29:57;;;;;;;6.57;5.25;;;20.30;65.70;;;;;;5086840;28;27446;-59
2021/06/27 01:32:43;;;;;;;6.63;5.07;;;20.30;65.80;;;;;;5104829;28;27438;-60
2021/06/27 01:35:28;;;;;;;5.80;5.20;;;20.30;65.80;;;;;;5105131;28;27344;-58
2021/06/27 01:38:13;;;;;;;6.50;5.47;;;20.30;65.80;;;;;;5105069;28;27331;-59
2021/06/27 01:40:58;;;;;;;6.75;5.82;;;20.30;65.90;;;;;;5103807;28;27418;-59
2021/06/27 01:43:42;;;;;;;9.73;5.75;;;20.30;66.00;;;;;;5104645;28;27505;-59
2021/06/27 01:46:27;;;;;;;8.30;5.55;;;20.20;65.90;;;;;;5101590;28;27470;-58
2021/06/27 01:49:12;;;;;;;6.95;5.47;;;20.20;65.90;;;;;;5103999;28;26868;-59
2021/06/27 01:51:56;;;;;;;8.77;5.47;;;20.20;66.00;;;;;;5104744;28;27848;-58
2021/06/27 01:54:41;;;;;;;10.23;5.57;;;20.10;66.10;;;;;;5103887;28;27477;-59
2021/06/27 01:57:25;;;;;;;6.05;5.45;;;20.10;66.00;;;;;;5103698;28;27482;-59
2021/06/27 02:00:11;;;;;;;8.82;5.75;;;20.10;66.10;;;;;;5100345;28;27472;-58
2021/06/27 02:02:56;;;;;;;8.70;5.43;;;20.10;66.20;;;;;;5103816;28;27553;-58
2021/06/27 02:05:40;;;;;;;7.22;5.65;;;20.10;66.20;;;;;;5104461;28;27415;-58
2021/06/27 02:08:31;;;;;;;6.60;5.88;;;20.00;66.30;;;;;;5104221;28;27415;-58
2021/06/27 02:11:17;;;;;;;7.25;5.78;;;20.00;66.40;;;;;;5103557;28;27363;-58
2021/06/27 02:14:02;;;;;;;7.32;5.57;;;20.00;66.40;;;;;;5100820;28;27380;-58
2021/06/27 02:16:49;;;;;;;6.93;5.53;;;20.00;66.50;;;;;;5104212;28;27519;-58
2021/06/27 02:19:34;;;;;;;8.93;6.10;;;20.00;66.60;;;;;;5103440;28;27476;-58
2021/06/27 02:22:18;;;;;;;6.80;6.10;;;20.00;66.50;;;;;;5104396;28;27396;-58
2021/06/27 02:25:03;;;;;;;10.10;5.65;;;19.90;66.50;;;;;;5100029;28;27906;-59
2021/06/27 02:27:48;;;;;;;7.40;5.43;;;19.90;66.60;;;;;;5103361;28;27493;-58
2021/06/27 02:30:33;;;;;;;9.70;6.55;;;19.90;66.80;;;;;;5104013;28;27463;-59
2021/06/27 02:33:18;;;;;;;6.30;5.65;;;19.90;66.80;;;;;;5103930;28;27461;-58
2021/06/27 02:36:03;;;;;;;7.40;5.00;;;19.80;66.70;;;;;;5103718;28;27969;-58
2021/06/27 02:38:49;;;;;;;5.47;4.85;;;19.80;66.80;;;;;;5102845;28;27496;-59
2021/06/27 02:41:35;;;;;;;6.13;5.55;;;19.80;66.80;;;;;;5104178;28;27404;-59
2021/06/27 02:44:20;;;;;;;11.23;5.57;;;19.80;66.90;;;;;;5104027;28;27486;-58
2021/06/27 02:47:05;;;;;;;11.52;5.82;;;19.80;67.00;;;;;;5103954;28;27407;-59
2021/06/27 02:49:49;;;;;;;8.38;6.15;;;19.80;67.00;;;;;;5103736;28;27407;-59
2021/06/27 02:52:34;;;;;;;7.07;5.07;;;19.70;67.10;;;;;;5099590;28;27451;-59
2021/06/27 02:55:18;;;;;;;11.82;5.60;;;19.70;67.00;;;;;;5103038;28;27375;-58
2021/06/27 02:58:03;;;;;;;7.90;5.13;;;19.70;67.20;;;;;;5099671;28;27500;-59
2021/06/27 03:00:48;;;;;;;10.90;5.88;;;19.70;67.20;;;;;;5085233;28;27486;-59
2021/06/27 03:03:32;;;;;;;6.78;5.38;;;19.70;67.30;;;;;;5103838;28;27375;-58
2021/06/27 03:06:17;;;;;;;6.35;5.55;;;19.70;67.40;;;;;;5103398;28;27383;-59
2021/06/27 03:09:01;;;;;;;6.75;5.55;;;19.70;67.40;;;;;;5103365;28;27398;-59
2021/06/27 03:11:46;;;;;;;7.70;5.05;;;19.70;67.60;;;;;;5103380;28;27492;-58
2021/06/27 03:14:31;;;;;;;7.63;5.40;;;19.70;67.70;;;;;;5103600;28;27336;-59
2021/06/27 03:17:15;;;;;;;8.57;5.60;;;19.70;67.60;;;;;;5103089;28;27332;-59
2021/06/27 03:20:00;;;;;;;6.30;5.70;;;19.70;67.70;;;;;;5100106;28;27337;-59
2021/06/27 03:22:47;;;;;;;8.88;5.50;;;19.70;67.70;;;;;;5103231;28;27413;-59
2021/06/27 03:25:33;;;;;;;7.70;6.10;;;19.70;67.70;;;;;;5103486;28;27382;-59
2021/06/27 03:28:19;;;;;;;8.23;6.30;;;19.70;67.80;;;;;;5103495;28;27481;-59
2021/06/27 03:31:04;;;;;;;6.10;5.50;;;19.70;67.80;;;;;;5103146;28;27508;-59
2021/06/27 03:33:50;;;;;;;6.45;5.85;;;19.70;68.70;;;;;;5103337;28;27479;-58
2021/06/27 03:36:35;;;;;;;6.72;5.70;;;19.60;67.80;;;;;;5102881;28;27434;-58
2021/06/27 03:39:21;;;;;;;6.85;5.80;;;19.60;68.10;;;;;;5102981;28;27412;-59
2021/06/27 03:42:06;;;;;;;7.22;5.60;;;19.60;68.10;;;;;;5103079;28;27461;-59
2021/06/27 03:44:51;;;;;;;9.50;5.40;;;19.60;68.10;;;;;;5102006;28;27422;-58
2021/06/27 03:47:35;;;;;;;7.38;5.70;;;19.60;68.20;;;;;;5103148;28;27423;-58
2021/06/27 03:50:19;;;;;;;7.18;5.88;;;19.60;68.30;;;;;;5104656;27;27422;-58
2021/06/27 03:53:04;;;;;;;8.55;5.95;;;19.60;68.40;;;;;;5106328;28;27860;-58
2021/06/27 03:55:48;;;;;;;6.10;5.47;;;19.60;68.50;;;;;;5103611;28;27450;-58
2021/06/27 03:58:33;;;;;;;7.03;6.07;;;19.70;68.50;;;;;;5106527;28;27420;-59
2021/06/27 04:01:17;;;;;;;7.43;5.75;;;19.60;68.50;;;;;;5106264;28;27321;-59
2021/06/27 04:04:03;;;;;;;7.68;5.82;;;19.60;68.50;;;;;;5106208;28;27389;-60
2021/06/27 04:06:47;;;;;;;7.38;6.10;;;19.60;68.60;;;;;;5102194;28;27360;-59
2021/06/27 04:09:32;;;;;;;7.20;6.28;;;19.70;68.80;;;;;;5102033;28;27412;-58
2021/06/27 04:12:16;;;;;;;10.88;6.00;;;19.60;68.90;;;;;;5106446;28;27369;-59
2021/06/27 04:15:02;;;;;;;7.80;7.00;;;19.60;69.00;;;;;;5102723;28;27396;-58
2021/06/27 04:17:46;;;;;;;6.82;6.18;;;19.60;69.20;;;;;;5105617;28;27402;-58
2021/06/27 04:20:31;;;;;;;9.68;7.70;;;19.60;69.40;;;;;;5106231;28;27388;-58
2021/06/27 04:23:16;;;;;;;9.88;7.25;;;19.60;69.40;;;;;;5087575;28;27382;-59
2021/06/27 04:26:00;;;;;;;9.63;7.45;;;19.60;69.60;;;;;;5105265;28;27890;-58
2021/06/27 04:28:45;;;;;;;7.13;6.28;;;19.60;69.80;;;;;;5105990;28;27405;-58
2021/06/27 04:31:29;;;;;;;7.07;6.38;;;19.70;69.80;;;;;;5101829;28;27351;-58
2021/06/27 04:34:14;;;;;;;10.50;6.38;;;19.70;69.90;;;;;;5102654;28;27370;-59
2021/06/27 04:36:59;;;;;;;9.57;7.50;;;19.70;70.00;;;;;;5102499;28;27356;-58
2021/06/27 04:39:43;;;;;;;9.18;7.35;;;19.70;70.10;;;;;;5104285;28;27375;-58
2021/06/27 04:42:28;;;;;;;10.40;7.22;;;19.70;70.20;;;;;;5105770;28;27344;-59
2021/06/27 04:45:13;;;;;;;10.70;7.30;;;19.70;70.20;;;;;;5105709;28;27388;-59
2021/06/27 04:47:59;;;;;;;11.50;7.15;;;19.70;70.50;;;;;;5105968;28;27385;-58
2021/06/27 04:50:45;;;;;;;11.68;8.25;;;19.70;70.40;;;;;;5105842;28;27328;-59
2021/06/27 04:53:29;;;;;;;12.15;7.25;;;19.80;70.60;;;;;;5105709;28;27410;-59
2021/06/27 04:56:14;;;;;;;13.02;7.55;;;19.80;70.70;;;;;;5102396;28;27346;-58
2021/06/27 04:58:59;;;;;;;9.27;7.13;;;19.80;70.80;;;;;;5102273;28;27367;-58
2021/06/27 05:01:43;;;;;;;10.77;7.07;;;19.90;70.90;;;;;;5104469;27;27476;-59
2021/06/27 05:04:28;;;;;;;9.52;7.32;;;19.90;71.00;;;;;;5105423;28;27328;-58
2021/06/27 05:07:12;;;;;;;9.57;7.47;;;19.90;71.00;;;;;;5104034;28;27450;-59
2021/06/27 05:09:57;;;;;;;8.15;7.32;;;20.00;71.20;;;;;;5105432;28;27473;-59
2021/06/27 05:12:41;;;;;;;10.80;8.43;;;20.00;71.20;;;;;;5104573;28;27423;-59
2021/06/27 05:15:26;;;;;;;10.18;8.55;;;20.00;71.20;;;;;;5105323;28;27443;-58
2021/06/27 05:18:11;;;;;;;11.02;8.60;;;20.00;71.30;;;;;;5105116;28;27460;-60
2021/06/27 05:20:55;;;;;;;11.95;7.70;;;20.10;71.40;;;;;;5104211;28;27477;-59
2021/06/27 05:23:40;;;;;;;9.98;8.10;;;20.10;71.30;;;;;;5104989;28;27415;-59
2021/06/27 05:26:24;;;;;;;14.00;8.57;;;20.10;71.40;;;;;;5104479;28;27461;-59
2021/06/27 05:29:09;;;;;;;9.90;8.82;;;20.10;71.60;;;;;;5104137;28;27504;-59
2021/06/27 05:31:53;;;;;;;11.52;8.93;;;20.20;71.60;;;;;;5100730;28;27423;-58
2021/06/27 05:34:38;;;;;;;10.07;8.95;;;20.20;71.60;;;;;;5104418;28;27695;-60
2021/06/27 05:37:23;;;;;;;10.65;9.60;;;20.20;71.60;;;;;;5105046;28;27745;-59
2021/06/27 05:40:08;;;;;;;12.68;8.90;;;20.20;71.70;;;;;;5104723;28;27407;-58
2021/06/27 05:42:53;;;;;;;9.50;8.38;;;20.20;71.70;;;;;;5104961;28;27340;-59
2021/06/27 05:45:37;;;;;;;10.55;9.38;;;20.20;71.60;;;;;;5104811;28;27324;-59
2021/06/27 05:48:22;;;;;;;9.70;8.70;;;20.20;71.60;;;;;;5104701;28;27386;-59
2021/06/27 05:51:06;;;;;;;9.48;8.52;;;20.20;71.80;;;;;;5100671;28;26964;-59
2021/06/27 05:53:53;;;;;;;9.48;8.48;;;20.30;71.70;;;;;;5104448;28;27418;-59
2021/06/27 05:56:38;;;;;;;16.73;10.48;;;20.50;71.60;;;;;;5102900;28;27408;-59
2021/06/27 05:59:22;;;;;;;9.80;8.77;;;20.60;71.10;;;;;;5104143;28;26943;-59
2021/06/27 06:02:07;;;;;;;13.52;10.05;;;20.80;70.90;;;;;;5103592;28;27382;-59
2021/06/27 06:04:52;;;;;;;10.88;9.77;;;21.00;70.70;;;;;;5100067;28;27339;-59
2021/06/27 06:07:36;;;;;;;13.07;10.00;;;21.10;70.80;;;;;;5104531;28;27321;-58
2021/06/27 06:10:21;;;;;;;12.48;10.35;;;21.30;69.70;;;;;;5103510;28;27394;-59
2021/06/27 06:13:07;;;;;;;10.30;9.18;;;21.50;69.30;;;;;;5103645;27;27356;-58
2021/06/27 06:15:52;;;;;;;11.98;10.15;;;21.70;69.30;;;;;;5103430;28;27379;-59
2021/06/27 06:18:37;;;;;;;15.32;10.85;;;21.90;68.80;;;;;;5103973;28;27394;-59
2021/06/27 06:21:21;;;;;;;11.25;10.05;;;22.10;68.30;;;;;;5104134;28;27413;-59
2021/06/27 06:24:06;;;;;;;10.95;9.40;;;22.20;67.60;;;;;;5104171;28;27334;-59
2021/06/27 06:26:51;;;;;;;11.05;9.32;;;22.40;67.50;;;;;;5100043;28;27385;-59
2021/06/27 06:29:35;;;;;;;10.82;9.60;;;22.50;67.40;;;;;;5103587;28;27581;-58
2021/06/27 06:32:20;;;;;;;9.10;7.90;;;22.70;67.10;;;;;;5103977;28;27366;-60
2021/06/27 06:35:05;;;;;;;9.27;8.18;;;22.80;67.20;;;;;;5099932;28;27339;-59
2021/06/27 06:37:49;;;;;;;8.75;7.93;;;22.90;67.30;;;;;;5103431;28;27401;-59
2021/06/27 06:40:34;;;;;;;8.45;7.65;;;23.10;67.30;;;;;;5085260;28;27403;-59
2021/06/27 06:43:19;;;;;;;10.05;7.28;;;23.20;67.10;;;;;;5088586;28;27349;-59
2021/06/27 06:46:03;;;;;;;7.90;7.10;;;23.40;66.80;;;;;;5103691;28;27331;-59
2021/06/27 06:48:48;;;;;;;10.45;7.30;;;23.50;66.40;;;;;;5103880;28;27402;-59
2021/06/27 06:51:32;;;;;;;9.82;7.53;;;23.70;66.10;;;;;;5088648;28;27485;-59
2021/06/27 06:54:17;;;;;;;7.75;6.78;;;23.80;65.70;;;;;;5103673;28;27457;-60
2021/06/27 06:57:01;;;;;;;10.32;7.25;;;24.00;65.10;;;;;;5101836;28;27577;-59
2021/06/27 06:59:46;;;;;;;8.68;7.07;;;24.10;65.10;;;;;;5103729;28;27454;-59
2021/06/27 07:02:30;;;;;;;8.88;7.97;;;24.30;65.00;;;;;;5099366;28;27420;-59
2021/06/27 07:05:15;;;;;;;7.78;7.07;;;24.40;65.70;;;;;;5099421;28;27464;-58
2021/06/27 07:07:59;;;;;;;8.18;7.38;;;24.50;65.20;;;;;;5100112;28;27484;-59
2021/06/27 07:10:43;;;;;;;9.77;8.13;;;24.70;65.10;;;;;;5102497;28;27548;-60
2021/06/27 07:13:28;;;;;;;11.43;8.25;;;24.80;65.00;;;;;;5102422;28;27504;-59
2021/06/27 07:16:12;;;;;;;9.75;7.47;;;25.00;66.10;;;;;;5103138;28;27408;-59
2021/06/27 07:18:57;;;;;;;8.70;6.25;;;25.20;65.50;;;;;;5103524;28;27332;-59
2021/06/27 07:21:43;;;;;;;6.55;5.78;;;25.30;65.00;;;;;;5103312;28;27336;-59
2021/06/27 07:24:28;;;;;;;6.32;5.72;;;25.50;64.80;;;;;;5102849;28;27518;-59
2021/06/27 07:27:12;;;;;;;6.32;5.72;;;25.60;63.80;;;;;;5106260;28;27352;-59
2021/06/27 07:29:57;;;;;;;6.93;6.32;;;25.80;64.10;;;;;;5107013;28;27393;-59
2021/06/27 07:32:41;;;;;;;7.05;6.25;;;26.00;63.90;;;;;;5105919;28;27887;-59
2021/06/27 07:35:26;;;;;;;5.07;4.57;;;26.20;63.80;;;;;;5106017;28;27456;-59
2021/06/27 07:38:10;;;;;;;4.70;4.20;;;26.30;63.30;;;;;;5102590;28;27375;-61
2021/06/27 07:40:55;;;;;;;5.20;4.43;;;26.40;62.20;;;;;;5106957;28;27340;-59
2021/06/27 07:43:40;;;;;;;5.40;4.55;;;26.60;61.90;;;;;;5106771;28;27376;-59
2021/06/27 07:46:25;;;;;;;5.13;4.70;;;26.70;61.60;;;;;;5105606;28;27323;-59
2021/06/27 07:49:09;;;;;;;4.60;4.20;;;26.90;62.10;;;;;;5106725;28;27401;-59
2021/06/27 07:51:54;;;;;;;4.97;4.30;;;27.10;62.20;;;;;;5105935;28;27389;-59
2021/06/27 07:54:38;;;;;;;4.40;4.00;;;27.20;61.60;;;;;;5106316;28;27337;-60
2021/06/27 07:57:23;;;;;;;4.45;3.55;;;27.40;61.00;;;;;;5105649;28;27596;-60
2021/06/27 08:00:09;;;;;;;4.35;3.72;;;27.60;60.40;;;;;;5106356;28;27403;-59
2021/06/27 08:03:00;;;;;;;3.75;3.45;;;27.80;60.10;;;;;;5106266;28;27481;-60
2021/06/27 08:05:45;;;;;;;3.45;3.15;;;28.00;59.40;;;;;;5106375;28;27423;-59
2021/06/27 08:08:29;;;;;;;3.42;3.13;;;28.10;58.70;;;;;;5106153;28;27418;-60
2021/06/27 08:11:14;;;;;;;5.35;2.83;;;28.30;58.10;;;;;;5106243;28;27431;-60
2021/06/27 08:13:58;;;;;;;2.95;2.33;;;28.40;55.80;;;;;;5102245;28;27476;-60
2021/06/27 08:16:43;;;;;;;3.08;2.72;;;28.50;54.40;;;;;;5105773;28;27565;-60
2021/06/27 08:19:28;;;;;;;4.72;2.30;;;28.60;53.70;;;;;;5106189;28;27520;-60
2021/06/27 08:22:12;;;;;;;2.80;2.55;;;28.80;54.10;;;;;;5107339;28;27406;-60
2021/06/27 08:24:57;;;;;;;3.38;3.03;;;29.00;55.30;;;;;;5106959;28;27429;-60
2021/06/27 08:27:42;;;;;;;3.42;2.85;;;29.20;54.90;;;;;;5106060;28;27332;-60
2021/06/27 08:30:27;;;;;;;2.72;2.53;;;29.30;54.30;;;;;;5107086;28;27387;-61
2021/06/27 08:33:11;;;;;;;2.83;2.55;;;29.50;52.50;;;;;;5106823;28;27403;-61
2021/06/27 08:35:56;;;;;;;2.80;2.60;;;29.50;52.20;;;;;;5105950;28;27402;-60
2021/06/27 08:38:40;;;;;;;4.72;2.83;;;29.60;52.00;;;;;;5106545;28;27865;-60
2021/06/27 08:41:24;;;;;;;3.47;2.10;;;29.80;51.90;;;;;;5106589;28;27390;-61
2021/06/27 08:44:10;;;;;;;3.45;2.67;;;29.90;51.60;;;;;;5106914;28;27325;-61
2021/06/27 08:46:55;;;;;;;5.18;2.83;;;30.10;52.30;;;;;;5106406;28;27386;-61
2021/06/27 08:49:39;;;;;;;2.90;2.60;;;30.20;52.30;;;;;;5106685;28;27387;-61
2021/06/27 08:52:24;;;;;;;2.47;2.28;;;30.30;51.20;;;;;;5105975;28;27403;-61
2021/06/27 08:55:09;;;;;;;2.70;2.50;;;30.40;50.20;;;;;;5106296;28;27383;-62
2021/06/27 08:57:54;;;;;;;2.50;2.30;;;30.50;49.50;;;;;;5106343;28;27381;-61
2021/06/27 09:00:38;;;;;;;3.30;2.72;;;30.50;49.50;;;;;;5105430;28;27393;-61
2021/06/27 09:03:23;;;;;;;2.50;2.30;;;30.60;49.40;;;;;;5105713;28;27521;-61
2021/06/27 09:06:09;;;;;;;2.55;2.08;;;30.70;48.10;;;;;;5102240;28;27453;-61
2021/06/27 09:09:12;;;;;;;2.50;2.30;;;30.80;48.00;;;;;;5106491;28;27385;-61
2021/06/27 09:11:58;;;;;;;2.22;1.95;;;31.00;48.10;;;;;;5105638;28;27471;-61
2021/06/27 09:14:44;;;;;;;3.03;2.53;;;31.10;49.00;;;;;;5105558;28;27504;-61
2021/06/27 09:17:29;;;;;;;2.58;2.30;;;31.30;49.50;;;;;;5106065;28;27401;-61
2021/06/27 09:20:14;;;;;;;4.13;2.55;;;31.40;48.70;;;;;;5106083;28;27318;-61
2021/06/27 09:22:59;;;;;;;3.97;2.72;;;31.50;47.00;;;;;;5105909;28;27325;-61
2021/06/27 09:25:45;;;;;;;3.20;2.65;;;31.50;45.70;;;;;;5106156;28;27421;-62
2021/06/27 09:28:46;;;;;;;2.72;2.33;;;31.60;46.90;;;;;;5106235;28;27344;-61
2021/06/27 09:31:39;;;;;;;1.98;1.88;;;31.70;47.20;;;;;;5105816;28;27449;-61
2021/06/27 09:34:24;;;;;;;3.10;2.00;;;31.90;48.00;;;;;;5105664;28;27427;-61
2021/06/27 09:37:09;;;;;;;3.38;2.25;;;32.10;47.40;;;;;;5104700;28;27497;-61
2021/06/27 09:39:59;;;;;;;2.53;2.22;;;32.20;48.00;;;;;;5106009;28;27442;-61
2021/06/27 09:42:44;;;;;;;2.28;2.17;;;32.20;47.30;;;;;;5104810;28;27395;-62
2021/06/27 09:45:29;;;;;;;2.00;1.80;;;32.30;47.70;;;;;;5104830;28;27343;-62
2021/06/27 09:48:18;;;;;;;2.22;2.03;;;32.40;47.90;;;;;;5104744;27;27531;-61
2021/06/27 09:51:21;;;;;;;2.10;1.90;;;32.50;47.50;;;;;;5105878;28;27468;-64
2021/06/27 09:55:16;;;;;;;2.70;2.50;;;32.60;47.10;;;;;;5095543;28;27487;-63
2021/06/27 10:03:09;;;;;;;2.28;2.13;;;32.40;47.10;;;;;;5102293;28;27388;-64
2021/06/27 10:10:49;;;;;;;1.92;1.83;;;32.30;49.00;;;;;;5104753;28;27326;-61
2021/06/27 10:13:55;;;;;;;1.88;1.77;;;32.30;47.30;;;;;;5105168;28;27473;-65
2021/06/27 10:16:45;;;;;;;1.83;1.70;;;32.40;46.50;;;;;;5100963;28;27423;-62
2021/06/27 10:19:43;;;;;;;2.00;1.75;;;32.60;47.50;;;;;;5104713;28;27332;-61
2021/06/27 10:22:35;;;;;;;1.60;1.50;;;32.60;44.60;;;;;;5105431;28;27437;-62
2021/06/27 10:25:40;;;;;;;1.70;1.60;;;32.50;45.50;;;;;;5104342;28;27937;-62
2021/06/27 10:36:58;;;;;;;2.25;2.05;;;32.60;46.20;;;;;;5101697;28;27619;-61
2021/06/27 10:40:09;;;;;;;1.90;1.80;;;32.60;46.60;;;;;;5101581;28;27332;-61
2021/06/27 10:43:01;;;;;;;1.65;1.55;;;32.80;46.10;;;;;;5103964;28;27380;-61
2021/06/27 10:46:27;;;;;;;4.05;1.70;;;32.80;45.90;;;;;;5104839;28;27450;-62
2021/06/27 10:49:44;;;;;;;2.05;1.70;;;33.00;46.70;;;;;;5104241;28;27480;-62
2021/06/27 10:52:57;;;;;;;4.22;1.52;;;33.10;45.80;;;;;;5104686;28;27425;-63
2021/06/27 10:55:59;;;;;;;1.95;1.80;;;33.00;47.00;;;;;;5103859;28;27405;-64
2021/06/27 10:58:55;;;;;;;1.90;1.80;;;33.00;45.90;;;;;;5100741;28;27316;-61
2021/06/27 11:02:39;;;;;;;1.80;1.70;;;33.00;47.50;;;;;;5103778;28;27429;-62
2021/06/27 11:05:57;;;;;;;3.67;1.70;;;33.10;47.30;;;;;;5079700;28;27880;-61
2021/06/27 11:09:08;;;;;;;1.55;1.45;;;33.00;47.90;;;;;;5082724;28;27418;-61
2021/06/27 11:12:14;;;;;;;3.50;1.63;;;32.90;47.30;;;;;;5055777;28;27513;-61
2021/06/27 11:15:16;;;;;;;1.73;1.63;;;32.70;46.00;;;;;;5069373;28;27448;-63
2021/06/27 11:26:49;;;;;;;3.72;1.40;;;32.60;47.40;;;;;;5079858;28;27350;-61
2021/06/27 11:29:39;;;;;;;1.67;1.58;;;32.70;47.10;;;;;;5050875;28;27484;-61
2021/06/27 11:32:37;;;;;;;2.65;1.75;;;32.80;47.70;;;;;;5067939;28;27845;-61
2021/06/27 11:36:31;;;;;;;1.60;1.50;;;32.80;46.90;;;;;;5082027;28;27524;-61
2021/06/27 11:40:04;;;;;;;4.55;1.67;;;32.80;45.50;;;;;;5021637;28;27464;-64
2021/06/27 11:43:06;;;;;;;2.17;1.48;;;32.80;47.00;;;;;;4996142;28;27391;-61
2021/06/27 11:46:01;;;;;;;1.75;1.30;;;32.90;47.20;;;;;;5021728;28;27425;-62
2021/06/27 11:49:34;;;;;;;1.63;1.52;;;33.00;48.90;;;;;;5023167;28;27447;-61
2021/06/27 11:52:32;;;;;;;1.52;1.42;;;33.00;48.80;;;;;;5058466;28;27529;-71
2021/06/27 11:55:39;;;;;;;1.70;1.27;;;33.10;49.00;;;;;;5033831;28;27474;-63
2021/06/27 11:58:37;;;;;;;1.38;1.27;;;33.20;45.80;;;;;;5044199;28;27542;-63
2021/06/27 12:01:26;;;;;;;1.23;1.13;;;33.20;47.40;;;;;;5061129;28;27456;-61
2021/06/27 12:04:53;;;;;;;1.35;1.25;;;33.20;47.90;;;;;;5033558;28;27434;-65
2021/06/27 12:07:58;;;;;;;1.30;1.20;;;33.20;45.20;;;;;;5047505;28;27505;-62
2021/06/27 12:11:10;;;;;;;2.00;1.20;;;33.20;44.20;;;;;;5048407;28;27536;-62
2021/06/27 12:14:26;;;;;;;2.85;1.70;;;33.20;45.70;;;;;;5060224;28;27540;-63
2021/06/27 12:17:26;;;;;;;1.48;1.38;;;33.10;43.40;;;;;;5102853;28;27379;-61
2021/06/27 12:20:14;;;;;;;2.60;1.40;;;33.00;44.20;;;;;;5107294;28;27411;-61
2021/06/27 12:23:06;;;;;;;1.67;1.27;;;33.10;46.60;;;;;;5106876;28;27880;-61
2021/06/27 12:25:52;;;;;;;1.20;1.10;;;33.20;46.60;;;;;;5107148;28;27474;-63
2021/06/27 12:28:47;;;;;;;2.33;1.30;;;33.20;47.60;;;;;;5106504;28;27424;-61
2021/06/27 12:31:32;;;;;;;1.30;1.20;;;33.20;46.90;;;;;;5103024;28;27492;-61
2021/06/27 12:34:17;;;;;;;1.45;1.30;;;33.20;49.10;;;;;;5106743;28;27491;-61
2021/06/27 12:37:02;;;;;;;3.08;1.40;;;33.20;47.30;;;;;;5105735;28;27422;-61
2021/06/27 12:39:46;;;;;;;1.05;1.05;;;33.20;44.20;;;;;;5106740;28;27478;-63
2021/06/27 12:42:31;;;;;;;1.70;1.08;;;33.10;44.00;;;;;;5106948;28;27398;-60
2021/06/27 12:45:18;;;;;;;1.30;1.00;;;33.00;41.60;;;;;;5106864;28;27489;-61
2021/06/27 12:48:09;;;;;;;1.27;1.15;;;33.00;42.40;;;;;;5106555;28;27438;-61
2021/06/27 12:50:55;;;;;;;1.40;1.30;;;32.90;44.80;;;;;;5105833;28;27492;-61
2021/06/27 12:53:40;;;;;;;1.40;1.30;;;32.80;45.00;;;;;;5105549;28;27403;-61
2021/06/27 12:56:38;;;;;;;3.13;1.55;;;32.80;45.10;;;;;;5106026;28;27933;-61
2021/06/27 12:59:46;;;;;;;1.42;1.33;;;32.80;46.20;;;;;;5106589;28;27501;-60
2021/06/27 13:02:33;;;;;;;1.45;1.35;;;32.80;46.70;;;;;;5106401;28;27335;-61
2021/06/27 13:05:18;;;;;;;1.27;1.13;;;32.90;45.20;;;;;;5106367;28;27327;-61
2021/06/27 13:08:02;;;;;;;1.80;1.13;;;32.90;44.20;;;;;;5106183;28;27410;-62
2021/06/27 13:10:47;;;;;;;1.63;1.35;;;32.90;44.10;;;;;;5106456;28;27418;-60
2021/06/27 13:13:31;;;;;;;1.05;1.00;;;32.80;44.30;;;;;;5106185;28;27414;-60
2021/06/27 13:16:16;;;;;;;3.50;1.20;;;32.80;46.30;;;;;;5105265;28;27389;-61
2021/06/27 13:19:06;;;;;;;2.22;1.23;;;32.80;47.40;;;;;;5106286;28;27319;-61
2021/06/27 13:22:22;;;;;;;1.20;1.10;;;32.70;46.10;;;;;;5105821;27;27472;-61
2021/06/27 13:25:07;;;;;;;1.83;1.40;;;32.60;46.00;;;;;;5105697;28;27432;-61
2021/06/27 13:27:53;;;;;;;1.60;1.50;;;32.40;46.40;;;;;;5106178;28;27410;-61
2021/06/27 13:30:50;;;;;;;1.63;1.10;;;32.30;46.20;;;;;;5105829;28;27478;-61
2021/06/27 13:33:42;;;;;;;1.90;1.40;;;32.20;46.40;;;;;;5106071;28;27389;-61
2021/06/27 13:36:28;;;;;;;1.63;1.40;;;32.10;47.10;;;;;;5105961;28;27333;-61
2021/06/27 13:39:14;;;;;;;1.95;1.23;;;32.00;46.80;;;;;;5105045;28;27391;-61
2021/06/27 13:41:59;;;;;;;2.22;1.65;;;32.00;47.30;;;;;;5105821;28;27336;-61
2021/06/27 13:45:02;;;;;;;1.63;1.52;;;32.00;46.40;;;;;;5105483;28;27513;-61
2021/06/27 13:47:47;;;;;;;1.60;1.50;;;32.00;47.80;;;;;;5105562;28;27462;-61
2021/06/27 13:50:32;;;;;;;1.70;1.40;;;32.10;48.20;;;;;;5105279;28;27411;-61
2021/06/27 13:53:18;;;;;;;2.13;1.30;;;32.20;48.70;;;;;;5104741;28;27974;-61
2021/06/27 13:56:16;;;;;;;1.50;1.40;;;32.30;49.60;;;;;;5104926;28;27470;-61
2021/06/27 13:59:01;;;;;;;1.50;1.40;;;32.40;48.90;;;;;;5101398;28;27367;-61
2021/06/27 14:01:52;;;;;;;1.65;1.55;;;32.30;45.80;;;;;;5105390;28;27388;-65
2021/06/27 14:04:43;;;;;;;1.58;1.48;;;32.30;45.40;;;;;;5101617;28;27326;-63
2021/06/27 14:07:32;;;;;;;2.53;1.60;;;32.30;43.80;;;;;;5090538;28;27493;-62
2021/06/27 14:10:40;;;;;;;1.38;1.20;;;32.20;42.70;;;;;;5101351;28;27332;-63
2021/06/27 14:13:38;;;;;;;1.52;1.35;;;32.10;45.00;;;;;;5104882;28;27386;-61
2021/06/27 14:16:45;;;;;;;1.27;1.17;;;32.10;47.10;;;;;;5104456;28;27962;-61
2021/06/27 14:19:43;;;;;;;1.92;1.50;;;32.10;45.80;;;;;;5104716;28;27522;-62
2021/06/27 14:22:52;;;;;;;1.60;1.50;;;32.10;44.20;;;;;;5105523;28;27400;-61
2021/06/27 14:26:00;;;;;;;1.48;1.38;;;32.10;42.80;;;;;;5073197;28;27363;-62
2021/06/27 14:29:12;;;;;;;1.83;1.30;;;32.00;43.60;;;;;;5104496;28;27904;-61
2021/06/27 14:32:15;;;;;;;1.67;1.50;;;31.90;44.60;;;;;;5104554;28;27333;-61
2021/06/27 14:35:37;;;;;;;1.50;1.40;;;31.80;44.40;;;;;;5103158;28;27426;-63
2021/06/27 14:38:39;;;;;;;1.48;1.38;;;31.70;45.20;;;;;;5104361;28;27410;-62
2021/06/27 14:41:33;;;;;;;1.63;1.50;;;31.60;46.40;;;;;;5100832;28;27441;-61
2021/06/27 14:57:00;;;;;;;3.20;1.40;;;31.10;47.20;;;;;;5076664;28;27342;-63
2021/06/27 14:59:45;;;;;;;1.70;1.60;;;31.00;48.00;;;;;;5067999;28;27499;-61
2021/06/27 15:02:30;;;;;;;1.67;1.50;;;30.90;48.40;;;;;;5068562;28;27436;-61
2021/06/27 15:05:14;;;;;;;2.13;1.55;;;30.80;49.00;;;;;;5064967;28;26985;-60
2021/06/27 15:07:59;;;;;;;2.40;1.67;;;30.60;49.20;;;;;;5082142;28;27436;-60
2021/06/27 15:10:44;;;;;;;3.45;1.90;;;30.60;49.90;;;;;;5081749;28;27399;-60
2021/06/27 15:13:29;;;;;;;3.35;1.70;;;30.50;50.60;;;;;;5068332;28;27394;-62
2021/06/27 15:16:14;;;;;;;2.05;1.85;;;30.40;51.00;;;;;;5082115;28;27511;-60
2021/06/27 15:18:58;;;;;;;2.05;1.85;;;30.40;51.20;;;;;;5065001;28;27513;-60